Time;durP1;ratioP1;P1;durP2;ratioP2;P2;SDS_P1;SDS_P2;PMS_P1;PMS_P2;Temp;Humidity;BMP_temperature;BMP_pressure;BME280_temperature;BME280_humidity;BME280_pressure;Samples;Min_cycle;Max_cycle;Signal;HPM_P1;HPM_P2
2022/04/14 00:00:34;;;;;;;14.35;10.68;;;;;;;9.87;60.50;100901.81;5050787;28;20108;-27
2022/04/14 00:03:00;;;;;;;15.52;10.98;;;;;;;9.82;60.50;100906.22;5051940;28;20065;-27
2022/04/14 00:05:25;;;;;;;13.05;10.98;;;;;;;9.83;60.44;100907.09;5063563;28;20060;-27
2022/04/14 00:07:50;;;;;;;16.63;12.07;;;;;;;9.78;60.72;100908.88;5056997;28;20048;-29
2022/04/14 00:10:16;;;;;;;16.17;11.05;;;;;;;9.76;60.48;100900.97;5066969;28;20032;-27
2022/04/14 00:12:42;;;;;;;13.07;11.43;;;;;;;9.72;60.58;100900.09;5059493;28;20032;-29
2022/04/14 00:15:09;;;;;;;16.70;11.60;;;;;;;9.68;60.59;100892.19;5059315;28;20450;-29
2022/04/14 00:17:35;;;;;;;12.73;10.82;;;;;;;9.66;60.71;100899.22;5058858;28;20032;-30
2022/04/14 00:20:08;;;;;;;12.73;11.13;;;;;;;9.61;60.67;100902.72;5053852;28;20039;-30
2022/04/14 00:22:35;;;;;;;11.95;10.50;;;;;;;9.57;60.80;100895.72;5058853;28;20036;-30
2022/04/14 00:25:01;;;;;;;13.55;11.88;;;;;;;9.55;60.71;100902.75;5058745;28;20032;-30
2022/04/14 00:27:27;;;;;;;14.13;10.93;;;;;;;9.52;60.73;100907.13;5058485;28;20024;-30
2022/04/14 00:29:52;;;;;;;14.43;11.55;;;;;;;9.48;60.73;100907.13;5055759;28;20078;-30
2022/04/14 00:32:18;;;;;;;14.10;10.70;;;;;;;9.45;60.86;100919.44;5052572;28;20033;-30
2022/04/14 00:34:43;;;;;;;12.85;11.00;;;;;;;9.41;60.87;100915.94;5060674;28;20049;-30
2022/04/14 00:37:10;;;;;;;13.68;11.20;;;;;;;9.40;60.72;100908.03;5059965;28;20028;-30
2022/04/14 00:39:36;;;;;;;11.77;10.43;;;;;;;9.36;60.80;100910.66;5054255;28;20383;-30
2022/04/14 00:42:09;;;;;;;14.30;11.40;;;;;;;9.31;60.89;100904.50;5050273;28;20063;-30
2022/04/14 00:44:34;;;;;;;13.43;11.38;;;;;;;9.27;60.88;100900.13;5055454;28;20486;-30
2022/04/14 00:47:00;;;;;;;19.17;12.60;;;;;;;9.27;61.13;100912.44;5051489;28;20020;-30
2022/04/14 00:49:26;;;;;;;12.70;10.68;;;;;;;9.24;61.16;100910.69;5052511;28;20419;-29
2022/04/14 00:51:51;;;;;;;13.15;11.73;;;;;;;9.19;61.24;100915.03;5042523;28;20039;-31
2022/04/14 00:54:17;;;;;;;14.00;10.65;;;;;;;9.18;61.09;100918.56;5059950;28;20033;-30
2022/04/14 00:56:45;;;;;;;13.70;11.48;;;;;;;9.14;60.99;100927.31;5050829;28;20475;-29
2022/04/14 00:59:12;;;;;;;14.10;11.73;;;;;;;9.09;61.20;100930.84;5053856;28;20017;-27
2022/04/14 01:01:37;;;;;;;14.15;12.20;;;;;;;9.05;61.18;100928.19;5056955;28;20473;-28
2022/04/14 01:04:04;;;;;;;18.13;11.82;;;;;;;9.04;61.18;100937.81;5058406;28;20032;-29
2022/04/14 01:06:30;;;;;;;14.32;11.60;;;;;;;9.02;61.44;100934.34;5056158;28;20240;-28
2022/04/14 01:11:40;;;;;;;15.10;12.20;;;;;;;8.95;61.33;100943.09;5054940;28;20032;-28
2022/04/14 01:14:07;;;;;;;15.55;11.50;;;;;;;8.91;61.48;100928.16;5061174;28;20025;-28
2022/04/14 01:16:32;;;;;;;14.90;11.32;;;;;;;8.88;61.54;100933.41;5057190;28;20063;-28
2022/04/14 01:18:58;;;;;;;15.27;11.60;;;;;;;8.83;61.42;100934.28;5052886;28;20048;-28
2022/04/14 01:21:28;;;;;;;14.75;11.88;;;;;;;8.80;61.33;100939.53;5052680;28;20029;-28
2022/04/14 01:23:53;;;;;;;15.05;12.10;;;;;;;8.80;61.57;100938.69;5045066;28;20025;-30
2022/04/14 01:26:19;;;;;;;16.70;13.10;;;;;;;8.78;61.81;100940.41;5061124;28;20052;-29
2022/04/14 01:28:44;;;;;;;15.27;12.52;;;;;;;8.75;62.31;100935.13;5043197;28;20036;-29
2022/04/14 01:31:10;;;;;;;16.08;13.13;;;;;;;8.78;63.44;100940.41;5056060;28;20156;-29
2022/04/14 01:33:35;;;;;;;17.23;13.40;;;;;;;8.77;64.05;100942.16;5049542;28;20056;-29
2022/04/14 01:36:01;;;;;;;15.70;12.95;;;;;;;8.78;64.38;100946.56;5051704;28;20029;-29
2022/04/14 01:38:27;;;;;;;16.35;13.55;;;;;;;8.79;64.67;100953.56;5052771;28;20033;-29
2022/04/14 01:40:52;;;;;;;18.17;13.55;;;;;;;8.81;64.84;100957.06;5057427;28;20016;-29
2022/04/14 01:43:18;;;;;;;18.02;14.77;;;;;;;8.83;67.36;100952.69;5054531;28;20025;-29
2022/04/14 01:45:50;;;;;;;18.60;15.23;;;;;;;8.90;67.75;100960.63;5051269;28;20032;-29
2022/04/14 01:48:16;;;;;;;19.35;14.73;;;;;;;8.92;67.77;100967.63;5049806;28;20075;-26
2022/04/14 01:50:41;;;;;;;17.08;15.20;;;;;;;8.97;67.67;100967.66;5056799;28;20421;-26
2022/04/14 01:53:07;;;;;;;19.23;16.05;;;;;;;9.02;68.57;100971.16;5063281;28;20398;-29
2022/04/14 01:55:32;;;;;;;22.85;17.15;;;;;;;9.08;69.71;100965.03;5053820;28;20029;-27
2022/04/14 01:57:58;;;;;;;26.23;18.52;;;;;;;9.16;70.60;100967.66;5058855;28;20044;-28
2022/04/14 02:00:24;;;;;;;25.20;18.65;;;;;;;9.22;71.51;100970.31;5056644;28;20510;-26
2022/04/14 02:02:49;;;;;;;25.42;17.90;;;;;;;9.27;72.11;100973.81;5037004;28;20028;-27
2022/04/14 02:05:15;;;;;;;24.15;18.55;;;;;;;9.34;73.18;100972.09;5061109;28;20021;-27
2022/04/14 02:07:40;;;;;;;24.85;18.45;;;;;;;9.39;73.11;100979.97;5034365;28;20032;-26
2022/04/14 02:10:07;;;;;;;23.17;19.73;;;;;;;9.48;73.77;100980.84;5056290;28;20032;-29
2022/04/14 02:12:34;;;;;;;28.23;20.27;;;;;;;9.53;73.71;100994.03;5041772;28;20039;-26
2022/04/14 02:15:00;;;;;;;28.77;19.63;;;;;;;9.59;74.20;100991.41;5059217;28;20041;-27
2022/04/14 02:17:25;;;;;;;27.45;20.17;;;;;;;9.65;74.00;100987.00;5050783;28;20053;-26
2022/04/14 02:19:51;;;;;;;25.60;19.88;;;;;;;9.70;74.37;100985.28;5055685;28;20021;-26
2022/04/14 02:22:16;;;;;;;28.88;19.48;;;;;;;9.73;74.29;100985.25;5049208;28;20037;-26
2022/04/14 02:24:42;;;;;;;23.85;18.85;;;;;;;9.79;74.13;100984.38;5054853;28;20029;-27
2022/04/14 02:27:08;;;;;;;22.35;19.20;;;;;;;9.82;74.86;100979.09;5052069;28;20494;-26
2022/04/14 02:29:33;;;;;;;22.45;18.88;;;;;;;9.86;73.81;100987.00;5050761;28;20055;-27
2022/04/14 02:32:00;;;;;;;23.00;19.75;;;;;;;9.90;74.38;100982.59;5059938;28;20032;-27
2022/04/14 02:34:26;;;;;;;22.67;18.88;;;;;;;9.96;74.68;100984.34;5059071;28;20044;-27
2022/04/14 02:36:51;;;;;;;22.20;18.77;;;;;;;10.01;74.74;100990.50;5062303;28;20107;-27
2022/04/14 02:39:17;;;;;;;22.20;18.58;;;;;;;10.02;74.79;100986.97;5063941;28;20027;-27
2022/04/14 02:41:42;;;;;;;27.92;19.40;;;;;;;10.03;74.17;100988.72;5059308;28;20032;-26
2022/04/14 02:44:08;;;;;;;23.30;17.75;;;;;;;10.07;73.70;101001.00;5051840;28;20021;-26
2022/04/14 02:46:34;;;;;;;24.77;18.42;;;;;;;10.09;73.15;100998.38;5037661;28;20086;-26
2022/04/14 02:48:59;;;;;;;26.60;19.27;;;;;;;10.11;73.44;101000.13;5049828;28;20479;-27
2022/04/14 02:51:25;;;;;;;22.67;18.02;;;;;;;10.13;72.50;100994.84;5053741;28;20029;-29
2022/04/14 02:53:50;;;;;;;26.02;18.65;;;;;;;10.16;72.63;100992.22;5057625;28;20024;-28
2022/04/14 02:56:16;;;;;;;20.73;17.38;;;;;;;10.17;73.14;101007.16;5063024;28;20054;-28
2022/04/14 02:58:41;;;;;;;22.17;17.38;;;;;;;10.19;72.24;101002.75;5061255;28;20021;-29
2022/04/14 03:01:07;;;;;;;22.30;17.67;;;;;;;10.19;72.52;101001.88;5056996;28;20044;-29
2022/04/14 03:03:33;;;;;;;21.77;17.10;;;;;;;10.23;72.35;101006.25;5064038;28;20056;-28
2022/04/14 03:05:58;;;;;;;21.05;16.42;;;;;;;10.23;72.24;101006.25;5057472;28;20036;-28
2022/04/14 03:08:23;;;;;;;20.92;17.48;;;;;;;10.27;73.15;101014.16;5056113;28;20033;-28
2022/04/14 03:10:49;;;;;;;21.65;16.77;;;;;;;10.30;73.74;101021.19;5055845;28;20411;-29
2022/04/14 03:13:14;;;;;;;21.85;16.58;;;;;;;10.32;74.34;101022.06;5049283;28;20060;-28
2022/04/14 03:15:40;;;;;;;22.27;17.15;;;;;;;10.35;74.53;101029.97;5050567;28;20442;-28
2022/04/14 03:18:06;;;;;;;19.52;15.52;;;;;;;10.35;74.82;101022.06;5050717;28;20108;-28
2022/04/14 03:20:31;;;;;;;21.50;15.05;;;;;;;10.37;74.74;101015.00;5047780;28;20021;-28
2022/04/14 03:22:57;;;;;;;24.92;16.92;;;;;;;10.37;74.84;101004.47;5050010;28;20554;-28
2022/04/14 03:25:22;;;;;;;20.08;16.73;;;;;;;10.39;74.51;101013.25;5049349;28;20024;-28
2022/04/14 03:27:48;;;;;;;16.92;14.73;;;;;;;10.39;74.34;101013.25;5051196;28;20481;-28
2022/04/14 03:30:13;;;;;;;20.25;15.07;;;;;;;10.42;73.92;101027.31;5047646;28;20029;-28
2022/04/14 03:32:46;;;;;;;21.63;15.70;;;;;;;10.40;73.40;101022.91;5040388;28;20049;-28
2022/04/14 03:35:12;;;;;;;16.25;13.57;;;;;;;10.42;73.68;101017.66;5057860;28;20033;-28
2022/04/14 03:37:38;;;;;;;16.40;14.00;;;;;;;10.44;73.35;101028.19;5062112;28;20486;-28
2022/04/14 03:40:05;;;;;;;19.88;13.85;;;;;;;10.43;73.59;101029.09;5052316;28;20035;-28
2022/04/14 03:42:30;;;;;;;17.85;14.40;;;;;;;10.43;73.54;101037.00;5063456;28;20024;-28
2022/04/14 03:44:57;;;;;;;15.65;13.20;;;;;;;10.46;73.00;101034.34;5055548;28;20056;-28
2022/04/14 03:47:23;;;;;;;16.48;13.60;;;;;;;10.47;73.40;101028.22;5064623;28;20548;-28
2022/04/14 03:49:49;;;;;;;15.48;13.35;;;;;;;10.49;74.05;101037.00;5059154;28;20020;-28
2022/04/14 03:52:15;;;;;;;16.50;12.57;;;;;;;10.49;74.00;101042.25;5052735;28;20103;-28
2022/04/14 03:54:41;;;;;;;15.85;12.70;;;;;;;10.47;74.25;101037.00;5036673;28;20653;-28
2022/04/14 03:57:06;;;;;;;19.08;12.57;;;;;;;10.50;74.06;101049.28;5063611;28;20127;-28
2022/04/14 03:59:32;;;;;;;16.13;13.57;;;;;;;10.50;74.20;101038.72;5065004;28;20029;-28
2022/04/14 04:01:57;;;;;;;14.40;12.18;;;;;;;10.50;73.92;101042.25;5056611;28;20047;-28
2022/04/14 04:04:23;;;;;;;15.02;11.40;;;;;;;10.51;74.05;101045.78;5048117;28;20029;-28
2022/04/14 04:06:48;;;;;;;13.85;11.20;;;;;;;10.50;73.16;101036.09;5048725;28;20033;-28
2022/04/14 04:09:14;;;;;;;14.35;12.07;;;;;;;10.52;72.03;101042.25;5046961;28;20032;-28
2022/04/14 04:11:39;;;;;;;14.00;11.23;;;;;;;10.52;72.92;101042.25;5049209;28;20466;-28
2022/04/14 04:14:06;;;;;;;13.10;10.60;;;;;;;10.53;71.67;101046.66;5052415;28;20021;-28
2022/04/14 04:16:31;;;;;;;15.07;11.35;;;;;;;10.52;73.09;101052.81;5050103;28;20025;-28
2022/04/14 04:18:57;;;;;;;14.68;10.40;;;;;;;10.53;73.21;101057.19;5050093;28;20426;-28
2022/04/14 04:21:22;;;;;;;14.23;11.15;;;;;;;10.54;72.39;101061.59;5043670;28;20071;-28
2022/04/14 04:23:48;;;;;;;13.07;10.68;;;;;;;10.54;72.04;101061.59;5043783;28;20028;-28
2022/04/14 04:26:13;;;;;;;15.73;10.45;;;;;;;10.52;70.98;101060.72;5031217;28;20037;-28
2022/04/14 04:28:39;;;;;;;14.50;10.85;;;;;;;10.55;71.67;101071.25;5042982;28;20643;-28
2022/04/14 04:31:05;;;;;;;18.17;12.70;;;;;;;10.54;71.55;101069.53;5043326;28;20037;-28
2022/04/14 04:33:30;;;;;;;17.92;14.52;;;;;;;10.53;71.19;101062.47;5047464;28;20055;-28
2022/04/14 04:35:56;;;;;;;40.45;30.17;;;;;;;10.52;72.41;101068.63;5045421;28;20044;-28
2022/04/14 04:38:21;;;;;;;36.30;26.98;;;;;;;10.52;71.38;101071.28;5045091;28;20052;-28
2022/04/14 04:40:47;;;;;;;47.90;37.30;;;;;;;10.53;70.84;101073.00;5046628;28;20028;-28
2022/04/14 04:43:15;;;;;;;57.53;48.08;;;;;;;10.52;71.88;101072.16;5045288;28;20079;-28
2022/04/14 04:45:42;;;;;;;58.35;46.08;;;;;;;10.54;70.08;101072.16;5044427;28;20017;-28
2022/04/14 04:48:08;;;;;;;53.78;45.08;;;;;;;10.53;71.79;101080.94;5044721;28;20032;-28
2022/04/14 04:50:34;;;;;;;48.30;39.83;;;;;;;10.53;72.83;101083.56;5042456;28;20060;-27
2022/04/14 04:53:00;;;;;;;47.15;38.60;;;;;;;10.52;71.55;101084.47;5043147;28;20022;-27
2022/04/14 04:55:26;;;;;;;42.08;34.85;;;;;;;10.53;72.12;101083.56;5042107;28;20020;-27
2022/04/14 04:57:51;;;;;;;34.88;30.92;;;;;;;10.54;72.80;101093.25;5042538;28;20556;-27
2022/04/14 05:00:17;;;;;;;36.80;32.00;;;;;;;10.53;71.76;101088.84;5048363;28;20028;-27
2022/04/14 05:02:42;;;;;;;31.50;28.20;;;;;;;10.55;73.43;101102.03;5047863;28;20120;-28
2022/04/14 05:05:08;;;;;;;32.72;28.92;;;;;;;10.52;71.96;101102.91;5047872;28;20036;-28
2022/04/14 05:07:34;;;;;;;30.42;27.17;;;;;;;10.55;73.29;101110.84;5044285;28;20108;-28
2022/04/14 05:10:00;;;;;;;29.65;26.75;;;;;;;10.54;71.69;101110.84;5043329;28;20113;-28
2022/04/14 05:12:25;;;;;;;31.27;26.08;;;;;;;10.55;72.55;101112.56;5045162;28;20111;-28
2022/04/14 05:14:51;;;;;;;26.98;24.05;;;;;;;10.56;73.00;101120.50;5046475;28;20410;-28
2022/04/14 05:17:18;;;;;;;25.80;23.10;;;;;;;10.56;73.36;101125.75;5043425;28;20478;-28
2022/04/14 05:19:43;;;;;;;23.02;20.70;;;;;;;10.57;72.38;101127.50;5046964;28;20046;-28
2022/04/14 05:22:09;;;;;;;23.88;21.55;;;;;;;10.57;71.77;101124.88;5046672;28;20064;-28
2022/04/14 05:24:35;;;;;;;23.00;20.60;;;;;;;10.59;70.63;101131.03;5044078;28;20036;-28
2022/04/14 05:27:00;;;;;;;17.48;15.77;;;;;;;10.59;73.34;101128.41;5047883;28;20035;-28
2022/04/14 05:29:26;;;;;;;23.27;17.65;;;;;;;10.62;72.17;101136.31;5042229;28;20136;-28
2022/04/14 05:31:51;;;;;;;19.75;17.45;;;;;;;10.62;71.22;101131.03;5045203;28;20029;-28
2022/04/14 05:34:17;;;;;;;18.05;16.10;;;;;;;10.62;71.57;101146.88;5052095;28;20025;-28
2022/04/14 05:36:42;;;;;;;17.70;15.98;;;;;;;10.64;70.07;101129.25;5056402;28;20390;-28
2022/04/14 05:39:08;;;;;;;17.67;15.88;;;;;;;10.64;69.62;101133.69;5058015;28;20031;-28
2022/04/14 05:41:34;;;;;;;15.95;14.02;;;;;;;10.67;70.16;101127.50;5052896;28;20815;-28
2022/04/14 05:44:00;;;;;;;16.17;14.52;;;;;;;10.67;69.94;101130.16;5050617;28;20399;-28
2022/04/14 05:46:25;;;;;;;15.40;13.90;;;;;;;10.67;69.90;101123.09;5052364;28;20026;-28
2022/04/14 05:48:51;;;;;;;14.20;12.70;;;;;;;10.66;70.49;101121.34;5053782;28;20028;-28
2022/04/14 05:51:17;;;;;;;15.18;13.57;;;;;;;10.68;70.15;101129.25;5030101;28;20036;-28
2022/04/14 05:53:44;;;;;;;13.77;12.38;;;;;;;10.67;69.98;101123.09;5052355;28;20060;-28
2022/04/14 05:56:10;;;;;;;15.48;10.85;;;;;;;10.65;71.58;101119.59;5040794;28;20029;-28
2022/04/14 05:58:36;;;;;;;12.18;10.13;;;;;;;10.67;70.94;101122.25;5055506;28;20037;-28
2022/04/14 06:01:01;;;;;;;11.45;10.35;;;;;;;10.68;70.57;101116.97;5046076;28;20021;-28
2022/04/14 06:03:27;;;;;;;10.23;9.13;;;;;;;10.70;72.38;101119.59;5054134;28;20560;-28
2022/04/14 06:05:53;;;;;;;10.27;9.38;;;;;;;10.73;69.98;101119.56;5046971;28;20059;-29
2022/04/14 06:08:19;;;;;;;9.80;8.75;;;;;;;10.74;71.59;101114.28;5048640;28;20112;-28
2022/04/14 06:10:44;;;;;;;9.73;8.82;;;;;;;10.75;70.64;101110.78;5050401;28;20044;-28
2022/04/14 06:13:11;;;;;;;10.23;8.52;;;;;;;10.80;71.65;101118.66;5056500;28;20031;-28
2022/04/14 06:15:37;;;;;;;9.98;8.52;;;;;;;10.83;71.85;101108.09;5056793;28;20467;-28
2022/04/14 06:18:03;;;;;;;8.02;7.10;;;;;;;10.88;70.50;101108.97;5058466;28;20021;-28
2022/04/14 06:20:28;;;;;;;8.90;7.95;;;;;;;10.91;71.77;101113.38;5055917;28;20035;-28
2022/04/14 06:22:56;;;;;;;9.25;8.00;;;;;;;10.93;72.88;101108.09;5057295;28;20025;-28
2022/04/14 06:25:22;;;;;;;9.38;7.50;;;;;;;10.99;73.22;101110.69;5045812;28;20024;-28
2022/04/14 06:27:49;;;;;;;8.70;6.57;;;;;;;11.03;72.21;101118.59;5046156;28;20021;-28
2022/04/14 06:30:16;;;;;;;7.78;6.95;;;;;;;11.09;72.22;101112.41;5047817;28;20157;-28
2022/04/14 06:32:42;;;;;;;12.02;6.97;;;;;;;11.14;73.10;101113.28;5054071;28;20531;-28
2022/04/14 06:35:15;;;;;;;9.45;7.15;;;;;;;11.18;73.61;101108.88;5055899;28;20045;-29
2022/04/14 06:37:40;;;;;;;8.02;7.22;;;;;;;11.23;74.01;101106.19;5063631;28;20021;-29
2022/04/14 06:40:06;;;;;;;6.47;5.72;;;;;;;11.31;72.68;101108.81;5064712;28;20500;-29
2022/04/14 06:42:32;;;;;;;11.13;6.18;;;;;;;11.36;72.46;101118.47;5057424;28;20036;-29
2022/04/14 06:44:59;;;;;;;11.63;6.45;;;;;;;11.45;72.77;101111.34;5053839;28;20402;-29
2022/04/14 06:47:26;;;;;;;8.73;5.68;;;;;;;11.53;71.10;101125.41;5063284;28;20028;-28
2022/04/14 06:49:52;;;;;;;6.85;6.13;;;;;;;11.58;72.05;101123.63;5062812;28;20441;-29
2022/04/14 06:52:18;;;;;;;8.70;6.18;;;;;;;11.65;72.17;101120.06;5055510;28;20099;-30
2022/04/14 06:54:43;;;;;;;8.95;6.00;;;;;;;11.71;71.63;101128.81;5063279;28;20020;-29
2022/04/14 06:57:09;;;;;;;6.18;5.45;;;;;;;11.77;71.79;101119.09;5051105;28;20028;-29
2022/04/14 06:59:35;;;;;;;7.70;6.05;;;;;;;11.83;72.11;101126.09;5058084;28;20556;-29
2022/04/14 07:02:00;;;;;;;7.88;5.95;;;;;;;11.89;72.61;101133.09;5050456;28;20431;-29
2022/04/14 07:04:27;;;;;;;7.50;5.60;;;;;;;11.97;71.21;101135.69;5065003;28;20054;-30
2022/04/14 07:06:52;;;;;;;8.10;5.22;;;;;;;12.04;72.10;101127.69;5058085;28;20021;-29
2022/04/14 07:09:18;;;;;;;6.32;5.53;;;;;;;12.10;71.27;101137.38;5058614;28;20027;-30
2022/04/14 07:11:43;;;;;;;9.90;5.82;;;;;;;12.15;71.90;101132.94;5052030;28;20100;-30
2022/04/14 07:14:09;;;;;;;6.80;4.97;;;;;;;12.26;71.21;101134.59;5042459;28;20037;-30
2022/04/14 07:16:34;;;;;;;6.13;5.40;;;;;;;12.31;71.49;101143.38;5054527;28;20112;-29
2022/04/14 07:19:00;;;;;;;11.68;6.28;;;;;;;12.41;70.87;101138.88;5052223;28;20074;-28
2022/04/14 07:21:25;;;;;;;6.75;5.00;;;;;;;12.49;71.34;101139.69;5056052;28;20029;-29
2022/04/14 07:23:51;;;;;;;6.07;4.53;;;;;;;12.57;70.80;101139.59;5053912;28;20029;-29
2022/04/14 07:26:17;;;;;;;6.10;5.18;;;;;;;12.65;71.42;101140.44;5056646;28;20029;-29
2022/04/14 07:28:43;;;;;;;6.05;4.72;;;;;;;12.72;71.11;101145.63;5052129;28;20021;-29
2022/04/14 07:31:08;;;;;;;5.82;5.22;;;;;;;12.83;70.82;101149.03;5053136;28;20029;-28
2022/04/14 07:33:36;;;;;;;7.07;5.15;;;;;;;13.04;72.75;101155.00;5058934;28;20025;-29
2022/04/14 07:36:02;;;;;;;7.03;5.40;;;;;;;13.08;70.80;101162.03;5050938;28;21118;-29
2022/04/14 07:38:28;;;;;;;6.45;5.25;;;;;;;13.17;70.26;101156.59;5056565;28;20017;-29
2022/04/14 07:40:56;;;;;;;7.07;5.60;;;;;;;13.25;70.19;101163.56;5054326;28;20028;-31
2022/04/14 07:43:22;;;;;;;6.20;5.25;;;;;;;13.33;70.59;101159.06;5058410;28;20146;-29
2022/04/14 07:45:48;;;;;;;6.72;5.18;;;;;;;13.45;70.52;101169.50;5054059;28;20033;-28
2022/04/14 07:48:14;;;;;;;6.50;5.35;;;;;;;13.52;70.08;101172.09;5059853;28;20485;-28
2022/04/14 07:50:39;;;;;;;5.72;5.13;;;;;;;13.61;69.64;101177.28;5052912;28;20107;-29
2022/04/14 07:53:05;;;;;;;6.00;5.05;;;;;;;13.70;70.13;101171.84;5046924;28;20447;-28
2022/04/14 07:55:32;;;;;;;6.53;5.72;;;;;;;13.80;69.17;101175.22;5045031;28;21134;-28
2022/04/14 07:58:05;;;;;;;8.05;5.80;;;;;;;13.89;69.11;101176.88;5041686;28;20029;-29
2022/04/14 08:00:31;;;;;;;5.40;4.90;;;;;;;13.97;68.56;101182.94;5045915;28;20024;-28
2022/04/14 08:02:58;;;;;;;6.00;4.40;;;;;;;14.08;68.30;101180.09;5044431;28;20045;-29
2022/04/14 08:05:38;;;;;;;4.75;4.28;;;;;;;14.17;68.75;101188.84;5027531;28;20021;-27
2022/04/14 08:08:04;;;;;;;5.60;4.05;;;;;;;14.30;69.03;101192.19;5040288;28;20033;-30
2022/04/14 08:10:30;;;;;;;5.20;4.70;;;;;;;14.39;68.14;101194.66;5047345;28;20079;-29
2022/04/14 08:12:56;;;;;;;6.35;4.50;;;;;;;14.50;68.58;101198.03;5051582;28;20447;-28
2022/04/14 08:15:22;;;;;;;6.00;4.20;;;;;;;14.60;68.54;101196.06;5060665;28;20436;-29
2022/04/14 08:17:47;;;;;;;6.82;5.15;;;;;;;14.68;67.94;101201.25;5046309;28;20466;-28
2022/04/14 08:20:14;;;;;;;6.28;4.40;;;;;;;14.77;67.92;101199.34;5052149;28;20477;-29
2022/04/14 08:23:14;;;;;;;4.90;3.92;;;;;;;14.90;67.66;101198.22;5053073;28;20041;-28
2022/04/14 08:25:40;;;;;;;5.05;4.28;;;;;;;14.99;67.54;101206.03;5045011;28;20048;-30
2022/04/14 08:28:06;;;;;;;7.38;4.43;;;;;;;15.06;67.14;101200.59;5048552;28;20040;-29
2022/04/14 08:30:33;;;;;;;5.07;3.95;;;;;;;15.15;66.92;101203.09;5051561;28;20108;-29
2022/04/14 08:33:05;;;;;;;4.70;3.50;;;;;;;15.18;67.91;101208.34;5047578;28;20068;-29
2022/04/14 08:35:32;;;;;;;5.78;3.38;;;;;;;15.27;67.60;101204.59;5049455;28;20390;-28
2022/04/14 08:37:57;;;;;;;5.85;3.58;;;;;;;15.33;66.68;101207.13;5047781;28;20158;-29
2022/04/14 08:40:23;;;;;;;5.78;3.08;;;;;;;15.41;66.31;101206.09;5050415;28;20036;-29
2022/04/14 08:42:53;;;;;;;5.38;3.40;;;;;;;15.45;65.27;101211.34;5047481;28;20039;-29
2022/04/14 08:45:22;;;;;;;5.65;2.75;;;;;;;15.46;66.74;101204.22;5050868;28;20025;-29
2022/04/14 08:47:49;;;;;;;5.03;3.67;;;;;;;15.55;65.93;101211.13;5056690;28;20032;-29
2022/04/14 08:50:15;;;;;;;4.10;3.60;;;;;;;15.60;65.29;101212.78;5060107;28;20116;-28
2022/04/14 08:52:42;;;;;;;6.80;3.33;;;;;;;15.68;65.70;101209.97;5050503;28;20029;-29
2022/04/14 08:55:10;;;;;;;6.18;3.22;;;;;;;15.74;65.37;101215.13;5043069;28;20128;-29
2022/04/14 08:57:36;;;;;;;4.57;2.97;;;;;;;15.77;65.00;101209.75;5043859;28;20477;-29
2022/04/14 09:00:04;;;;;;;4.07;2.60;;;;;;;15.83;65.31;101219.38;5045066;28;20040;-29
2022/04/14 09:02:31;;;;;;;3.50;2.60;;;;;;;15.88;65.43;101221.94;5045159;28;20033;-29
2022/04/14 09:04:56;;;;;;;2.45;2.10;;;;;;;15.94;65.57;101226.25;5041869;28;20051;-29
2022/04/14 09:07:22;;;;;;;6.70;3.10;;;;;;;15.97;65.16;101221.75;5041954;28;20502;-29
2022/04/14 09:09:47;;;;;;;2.58;2.20;;;;;;;16.02;65.26;101224.31;5044674;28;20501;-29
2022/04/14 09:12:13;;;;;;;3.45;2.78;;;;;;;16.04;64.90;101225.13;5055132;28;20029;-30
2022/04/14 09:14:39;;;;;;;3.25;2.65;;;;;;;16.08;64.95;101228.63;5052625;28;20036;-29
2022/04/14 09:17:05;;;;;;;2.90;2.38;;;;;;;16.12;64.72;101235.63;5049493;28;20067;-29
2022/04/14 09:19:33;;;;;;;2.20;2.00;;;;;;;16.15;64.87;101240.88;5046445;28;20024;-28
2022/04/14 09:22:11;;;;;;;2.30;1.88;;;;;;;16.20;64.40;101233.63;5047402;28;20103;-27
2022/04/14 09:24:49;;;;;;;2.75;1.90;;;;;;;16.20;65.20;101241.63;5060648;28;20406;-28
2022/04/14 09:27:41;;;;;;;3.05;1.70;;;;;;;16.23;64.45;101233.56;5048135;28;20064;-30
2022/04/14 09:30:08;;;;;;;2.78;2.03;;;;;;;16.26;64.01;101233.50;5049406;28;20042;-29
2022/04/14 09:32:39;;;;;;;2.60;2.03;;;;;;;16.30;64.21;101234.28;5050767;28;20024;-29
2022/04/14 09:35:05;;;;;;;2.20;2.00;;;;;;;16.30;64.18;101239.63;5045815;28;20032;-29
2022/04/14 09:37:31;;;;;;;3.63;1.52;;;;;;;16.34;64.26;101233.31;5040295;28;20112;-26
2022/04/14 09:40:02;;;;;;;2.80;1.77;;;;;;;16.35;64.17;101228.88;5037103;28;20116;-26
2022/04/14 09:42:38;;;;;;;2.05;1.60;;;;;;;16.40;64.45;101234.94;5049191;28;20024;-26
2022/04/14 09:45:28;;;;;;;3.47;2.22;;;;;;;16.44;63.70;101231.28;5035624;28;20136;-26
2022/04/14 09:48:01;;;;;;;1.73;1.60;;;;;;;16.46;64.38;101229.47;5043478;28;20364;-26
2022/04/14 09:50:39;;;;;;;1.70;1.40;;;;;;;16.52;64.17;101229.34;5045658;28;20033;-28
2022/04/14 09:53:07;;;;;;;2.53;1.80;;;;;;;16.55;64.13;101229.22;5037750;28;20117;-26
2022/04/14 09:55:44;;;;;;;2.35;1.77;;;;;;;16.64;64.59;101227.28;5043768;28;20033;-28
2022/04/14 09:58:23;;;;;;;1.92;1.83;;;;;;;16.68;64.42;101228.94;5034041;28;20029;-27
2022/04/14 10:00:50;;;;;;;1.67;1.45;;;;;;;16.73;64.55;101221.69;5049304;28;20023;-25
2022/04/14 10:03:29;;;;;;;1.52;1.42;;;;;;;16.78;64.10;101227.75;5046767;28;20036;-26
2022/04/14 10:05:59;;;;;;;2.42;2.22;;;;;;;16.83;63.78;101221.44;5060426;28;20032;-26
2022/04/14 10:08:27;;;;;;;1.90;1.80;;;;;;;16.87;63.93;101221.31;5049784;28;20025;-25
2022/04/14 10:11:08;;;;;;;3.20;1.70;;;;;;;16.92;63.75;101226.53;5038961;28;20398;-25
2022/04/14 10:13:35;;;;;;;2.08;1.80;;;;;;;16.97;63.37;101229.94;5041105;28;20395;-27
2022/04/14 10:16:00;;;;;;;4.57;1.98;;;;;;;17.04;63.38;101230.66;5041994;28;20052;-26
2022/04/14 10:18:26;;;;;;;3.72;2.08;;;;;;;17.10;63.49;101227.00;5048006;28;20444;-27
2022/04/14 10:20:51;;;;;;;1.80;1.70;;;;;;;17.13;63.49;101226.88;5050086;28;20040;-25
2022/04/14 10:23:17;;;;;;;2.60;1.85;;;;;;;17.18;63.16;101223.16;5052527;28;20064;-25
2022/04/14 10:25:42;;;;;;;2.70;2.03;;;;;;;17.24;63.43;101226.59;5060767;28;20486;-27
2022/04/14 10:28:12;;;;;;;2.05;1.85;;;;;;;17.29;63.39;101225.56;5049829;28;20508;-26
2022/04/14 10:30:37;;;;;;;2.15;1.95;;;;;;;17.34;63.35;101240.53;5051289;28;20120;-29
2022/04/14 10:33:03;;;;;;;2.67;1.98;;;;;;;17.40;63.30;101237.69;5055505;28;20079;-28
2022/04/14 10:35:32;;;;;;;2.75;2.55;;;;;;;17.42;63.10;101230.53;5053217;28;20024;-25
2022/04/14 10:38:22;;;;;;;1.98;1.85;;;;;;;17.46;62.75;101237.50;5046615;28;20029;-26
2022/04/14 10:41:12;;;;;;;2.28;2.08;;;;;;;17.50;62.74;101244.50;5056736;28;20024;-26
2022/04/14 10:43:40;;;;;;;2.47;2.28;;;;;;;17.53;62.22;101239.09;5056512;28;20025;-28
2022/04/14 10:46:06;;;;;;;2.85;2.55;;;;;;;17.55;62.34;101242.56;5046913;28;20068;-26
2022/04/14 10:48:33;;;;;;;2.13;1.92;;;;;;;17.57;62.88;101245.19;5044944;28;20053;-26
2022/04/14 10:51:22;;;;;;;2.63;2.42;;;;;;;17.61;62.09;101248.66;5038373;28;20774;-26
2022/04/14 10:53:55;;;;;;;2.45;2.17;;;;;;;17.61;62.52;101251.31;5047818;28;20041;-27
2022/04/14 10:56:33;;;;;;;3.50;2.60;;;;;;;17.65;61.95;101250.31;5047595;28;20475;-26
2022/04/14 10:58:59;;;;;;;2.97;2.58;;;;;;;17.64;61.99;101245.91;5047023;28;20517;-28
2022/04/14 11:01:46;;;;;;;3.00;2.55;;;;;;;17.67;62.63;101246.66;5049048;28;20029;-30
2022/04/14 11:04:21;;;;;;;5.70;3.30;;;;;;;17.67;62.43;101254.66;5046682;28;20021;-27
2022/04/14 11:06:48;;;;;;;9.52;3.00;;;;;;;17.58;62.32;101257.63;5050235;28;20025;-28
2022/04/14 11:09:38;;;;;;;6.65;3.30;;;;;;;17.64;62.43;101261.91;5051396;28;20483;-28
2022/04/14 11:12:05;;;;;;;5.20;2.83;;;;;;;17.64;62.15;101260.09;5054160;28;20052;-29
2022/04/14 11:15:00;;;;;;;2.53;2.33;;;;;;;17.67;61.50;101264.47;5058215;28;20457;-28
2022/04/14 11:17:37;;;;;;;2.95;2.38;;;;;;;17.65;61.98;101268.97;5052696;28;20169;-28
2022/04/14 11:20:22;;;;;;;3.53;2.90;;;;;;;17.64;62.17;101261.91;5057484;28;20112;-28
2022/04/14 11:23:12;;;;;;;2.50;2.10;;;;;;;17.65;61.30;101268.97;5054283;28;20033;-28